sensor_id;sensor_type;location;lat;lon;timestamp;pressure;altitude;pressure_sealevel;temperature;humidity
63351;BME280;64988;51.058;17.040;2023-03-13T00:02:25;99419.75;;;14.13;42.68
63351;BME280;64988;51.058;17.040;2023-03-13T00:07:52;99419.78;;;14.22;42.94
63351;BME280;64988;51.058;17.040;2023-03-13T00:13:20;99413.97;;;14.16;42.58
63351;BME280;64988;51.058;17.040;2023-03-13T00:18:48;99424.09;;;14.40;42.11
63351;BME280;64988;51.058;17.040;2023-03-13T00:24:17;99420.38;;;14.49;42.09
63351;BME280;64988;51.058;17.040;2023-03-13T00:29:43;99418.84;;;14.47;42.15
63351;BME280;64988;51.058;17.040;2023-03-13T00:35:12;99432.44;;;14.47;42.23
63351;BME280;64988;51.058;17.040;2023-03-13T00:40:40;99418.16;;;14.45;42.30
63351;BME280;64988;51.058;17.040;2023-03-13T00:46:08;99424.28;;;14.47;42.38
63351;BME280;64988;51.058;17.040;2023-03-13T00:51:36;99423.06;;;14.41;42.76
63351;BME280;64988;51.058;17.040;2023-03-13T00:57:03;99429.13;;;14.27;43.00
63351;BME280;64988;51.058;17.040;2023-03-13T01:02:31;99425.88;;;14.24;43.01
63351;BME280;64988;51.058;17.040;2023-03-13T01:07:59;99424.22;;;14.31;42.98
63351;BME280;64988;51.058;17.040;2023-03-13T01:13:28;99425.44;;;14.36;42.80
63351;BME280;64988;51.058;17.040;2023-03-13T01:18:59;99425.94;;;14.40;43.07
63351;BME280;64988;51.058;17.040;2023-03-13T01:24:27;99421.91;;;14.44;42.99
63351;BME280;64988;51.058;17.040;2023-03-13T01:29:55;99425.81;;;14.49;42.71
63351;BME280;64988;51.058;17.040;2023-03-13T01:35:23;99427.16;;;14.61;42.76
63351;BME280;64988;51.058;17.040;2023-03-13T01:40:51;99420.03;;;14.60;42.87
63351;BME280;64988;51.058;17.040;2023-03-13T01:46:23;99416.97;;;14.55;43.32
63351;BME280;64988;51.058;17.040;2023-03-13T01:52:29;99421.59;;;14.71;43.87
63351;BME280;64988;51.058;17.040;2023-03-13T01:58:18;99432.13;;;14.66;45.15
63351;BME280;64988;51.058;17.040;2023-03-13T02:03:48;99436.34;;;14.68;45.69
63351;BME280;64988;51.058;17.040;2023-03-13T02:09:21;99453.69;;;14.92;45.57
63351;BME280;64988;51.058;17.040;2023-03-13T02:14:51;99446.91;;;14.96;46.26
63351;BME280;64988;51.058;17.040;2023-03-13T02:20:20;99453.69;;;15.00;46.47
63351;BME280;64988;51.058;17.040;2023-03-13T02:25:51;99457.09;;;15.02;46.53
63351;BME280;64988;51.058;17.040;2023-03-13T02:31:24;99452.00;;;15.07;46.69
63351;BME280;64988;51.058;17.040;2023-03-13T02:36:51;99455.22;;;15.10;45.81
63351;BME280;64988;51.058;17.040;2023-03-13T02:42:20;99439.44;;;15.14;45.75
63351;BME280;64988;51.058;17.040;2023-03-13T02:47:49;99449.63;;;14.96;46.43
63351;BME280;64988;51.058;17.040;2023-03-13T02:53:17;99451.66;;;15.02;46.05
63351;BME280;64988;51.058;17.040;2023-03-13T02:58:45;99442.13;;;14.65;46.99
63351;BME280;64988;51.058;17.040;2023-03-13T03:04:24;99447.50;;;14.41;47.69
63351;BME280;64988;51.058;17.040;2023-03-13T03:09:54;99430.00;;;14.36;47.83
63351;BME280;64988;51.058;17.040;2023-03-13T03:15:22;99424.25;;;14.39;48.23
63351;BME280;64988;51.058;17.040;2023-03-13T03:20:51;99415.16;;;14.14;48.81
63351;BME280;64988;51.058;17.040;2023-03-13T03:26:18;99409.53;;;14.07;48.44
63351;BME280;64988;51.058;17.040;2023-03-13T03:31:45;99410.34;;;13.92;48.93
63351;BME280;64988;51.058;17.040;2023-03-13T03:37:13;99406.59;;;13.93;48.80
63351;BME280;64988;51.058;17.040;2023-03-13T03:42:41;99407.16;;;14.04;48.63
63351;BME280;64988;51.058;17.040;2023-03-13T03:48:08;99412.03;;;13.93;48.81
63351;BME280;64988;51.058;17.040;2023-03-13T03:53:35;99415.19;;;13.80;49.74
63351;BME280;64988;51.058;17.040;2023-03-13T03:59:03;99410.84;;;13.53;50.43
63351;BME280;64988;51.058;17.040;2023-03-13T04:04:40;99398.56;;;13.75;49.86
63351;BME280;64988;51.058;17.040;2023-03-13T04:10:13;99387.38;;;13.44;50.91
63351;BME280;64988;51.058;17.040;2023-03-13T04:15:44;99396.66;;;13.67;51.25
63351;BME280;64988;51.058;17.040;2023-03-13T04:21:11;99378.28;;;13.87;50.91
63351;BME280;64988;51.058;17.040;2023-03-13T04:26:46;99362.44;;;13.66;51.61
63351;BME280;64988;51.058;17.040;2023-03-13T04:32:14;99357.38;;;13.72;51.57
63351;BME280;64988;51.058;17.040;2023-03-13T04:38:02;99343.81;;;13.72;51.60
63351;BME280;64988;51.058;17.040;2023-03-13T04:43:48;99330.78;;;13.75;51.44
63351;BME280;64988;51.058;17.040;2023-03-13T04:49:29;99336.00;;;13.68;51.37
63351;BME280;64988;51.058;17.040;2023-03-13T04:55:15;99335.31;;;13.66;51.30
63351;BME280;64988;51.058;17.040;2023-03-13T05:00:42;99330.06;;;13.65;51.23
63351;BME280;64988;51.058;17.040;2023-03-13T05:06:48;99333.94;;;13.62;51.47
63351;BME280;64988;51.058;17.040;2023-03-13T05:12:43;99328.84;;;13.59;51.71
63351;BME280;64988;51.058;17.040;2023-03-13T05:18:28;99324.88;;;13.96;50.93
63351;BME280;64988;51.058;17.040;2023-03-13T05:24:28;99319.16;;;14.23;50.13
63351;BME280;64988;51.058;17.040;2023-03-13T05:30:19;99320.56;;;14.35;49.89
63351;BME280;64988;51.058;17.040;2023-03-13T05:36:04;99301.06;;;14.48;49.77
63351;BME280;64988;51.058;17.040;2023-03-13T05:42:03;99309.38;;;14.54;49.53
63351;BME280;64988;51.058;17.040;2023-03-13T05:47:52;99298.66;;;14.77;48.93
63351;BME280;64988;51.058;17.040;2023-03-13T05:53:39;99297.84;;;14.68;49.37
63351;BME280;64988;51.058;17.040;2023-03-13T05:59:38;99292.91;;;14.72;49.24
63351;BME280;64988;51.058;17.040;2023-03-13T06:05:24;99298.94;;;15.06;48.35
63351;BME280;64988;51.058;17.040;2023-03-13T06:10:51;99293.84;;;15.11;48.29
63351;BME280;64988;51.058;17.040;2023-03-13T06:16:18;99274.13;;;15.17;48.22
63351;BME280;64988;51.058;17.040;2023-03-13T06:21:48;99288.13;;;15.84;46.47
63351;BME280;64988;51.058;17.040;2023-03-13T06:27:16;99278.41;;;16.12;45.74
63351;BME280;64988;51.058;17.040;2023-03-13T06:32:43;99263.72;;;16.67;44.65
63351;BME280;64988;51.058;17.040;2023-03-13T06:38:11;99261.25;;;16.57;44.60
63351;BME280;64988;51.058;17.040;2023-03-13T06:43:40;99259.03;;;16.90;44.38
63351;BME280;64988;51.058;17.040;2023-03-13T06:49:08;99253.81;;;17.18;43.46
63351;BME280;64988;51.058;17.040;2023-03-13T06:54:36;99263.34;;;18.29;41.40
63351;BME280;64988;51.058;17.040;2023-03-13T07:00:04;99259.19;;;18.76;40.18
63351;BME280;64988;51.058;17.040;2023-03-13T07:05:32;99264.56;;;19.59;38.46
63351;BME280;64988;51.058;17.040;2023-03-13T07:11:04;99250.31;;;20.70;36.60
63351;BME280;64988;51.058;17.040;2023-03-13T07:16:32;99231.84;;;21.43;34.81
63351;BME280;64988;51.058;17.040;2023-03-13T07:22:00;99225.84;;;22.10;33.30
63351;BME280;64988;51.058;17.040;2023-03-13T07:27:28;99213.72;;;22.80;32.56
63351;BME280;64988;51.058;17.040;2023-03-13T07:32:57;99210.69;;;23.68;31.21
63351;BME280;64988;51.058;17.040;2023-03-13T07:38:25;99223.88;;;24.25;29.97
63351;BME280;64988;51.058;17.040;2023-03-13T07:43:53;99194.78;;;24.11;30.10
63351;BME280;64988;51.058;17.040;2023-03-13T07:49:20;99167.75;;;23.60;30.31
63351;BME280;64988;51.058;17.040;2023-03-13T07:54:48;99191.97;;;22.23;32.83
63351;BME280;64988;51.058;17.040;2023-03-13T08:00:16;99193.81;;;21.97;33.63
63351;BME280;64988;51.058;17.040;2023-03-13T08:05:45;99200.81;;;21.36;34.70
63351;BME280;64988;51.058;17.040;2023-03-13T08:11:20;99194.97;;;21.32;35.20
63351;BME280;64988;51.058;17.040;2023-03-13T08:16:50;99179.47;;;21.51;35.25
63351;BME280;64988;51.058;17.040;2023-03-13T08:22:18;99164.94;;;21.37;35.08
63351;BME280;64988;51.058;17.040;2023-03-13T08:27:45;99145.88;;;20.85;35.67
63351;BME280;64988;51.058;17.040;2023-03-13T08:33:12;99167.16;;;21.09;35.42
63351;BME280;64988;51.058;17.040;2023-03-13T08:38:40;99157.34;;;21.77;34.60
63351;BME280;64988;51.058;17.040;2023-03-13T08:44:14;99146.88;;;20.97;35.34
63351;BME280;64988;51.058;17.040;2023-03-13T08:49:42;99128.47;;;21.24;34.59
63351;BME280;64988;51.058;17.040;2023-03-13T08:55:10;99117.41;;;20.79;35.42
63351;BME280;64988;51.058;17.040;2023-03-13T09:00:38;99111.38;;;21.22;34.88
63351;BME280;64988;51.058;17.040;2023-03-13T09:06:08;99109.09;;;21.06;34.77
63351;BME280;64988;51.058;17.040;2023-03-13T09:11:38;99103.38;;;21.14;34.56
63351;BME280;64988;51.058;17.040;2023-03-13T09:17:06;99083.44;;;21.38;34.57
63351;BME280;64988;51.058;17.040;2023-03-13T09:22:34;99083.53;;;20.34;35.84
63351;BME280;64988;51.058;17.040;2023-03-13T09:28:02;99066.47;;;20.19;36.50
63351;BME280;64988;51.058;17.040;2023-03-13T09:33:29;99065.25;;;20.92;36.30
63351;BME280;64988;51.058;17.040;2023-03-13T09:38:58;99059.06;;;21.04;36.04
63351;BME280;64988;51.058;17.040;2023-03-13T09:44:31;99041.69;;;21.23;35.57
63351;BME280;64988;51.058;17.040;2023-03-13T09:50:11;99023.19;;;20.54;36.31
63351;BME280;64988;51.058;17.040;2023-03-13T09:55:43;99008.69;;;20.21;36.97
63351;BME280;64988;51.058;17.040;2023-03-13T10:01:14;98998.34;;;20.36;36.51
63351;BME280;64988;51.058;17.040;2023-03-13T10:06:44;98976.31;;;19.59;38.01
63351;BME280;64988;51.058;17.040;2023-03-13T10:12:24;98958.59;;;19.74;37.50
63351;BME280;64988;51.058;17.040;2023-03-13T10:17:53;98978.59;;;19.88;38.29
63351;BME280;64988;51.058;17.040;2023-03-13T10:23:39;98964.06;;;19.28;40.69
63351;BME280;64988;51.058;17.040;2023-03-13T10:29:24;98971.72;;;18.72;43.63
63351;BME280;64988;51.058;17.040;2023-03-13T10:34:55;98947.56;;;18.89;44.86
63351;BME280;64988;51.058;17.040;2023-03-13T10:40:25;98954.91;;;18.75;44.68
63351;BME280;64988;51.058;17.040;2023-03-13T10:45:53;98937.28;;;19.04;43.97
63351;BME280;64988;51.058;17.040;2023-03-13T10:51:24;98936.53;;;18.56;43.99
63351;BME280;64988;51.058;17.040;2023-03-13T10:57:29;98929.69;;;18.86;44.38
63351;BME280;64988;51.058;17.040;2023-03-13T11:02:56;98945.44;;;18.78;43.57
63351;BME280;64988;51.058;17.040;2023-03-13T11:08:26;98947.13;;;18.79;44.98
63351;BME280;64988;51.058;17.040;2023-03-13T11:14:06;98951.31;;;18.75;44.56
63351;BME280;64988;51.058;17.040;2023-03-13T11:25:32;98954.41;;;19.78;44.38
63351;BME280;64988;51.058;17.040;2023-03-13T11:31:14;98939.63;;;19.92;42.16
63351;BME280;64988;51.058;17.040;2023-03-13T11:36:50;98920.94;;;20.47;41.16
63351;BME280;64988;51.058;17.040;2023-03-13T12:05:05;98897.66;;;20.63;39.73
63351;BME280;64988;51.058;17.040;2023-03-13T12:10:40;98894.97;;;20.87;39.88
63351;BME280;64988;51.058;17.040;2023-03-13T12:16:18;98888.28;;;21.15;39.70
63351;BME280;64988;51.058;17.040;2023-03-13T12:21:52;98878.22;;;21.33;39.35
63351;BME280;64988;51.058;17.040;2023-03-13T12:27:33;98883.81;;;21.20;39.91
63351;BME280;64988;51.058;17.040;2023-03-13T12:33:41;98858.44;;;21.25;38.95
63351;BME280;64988;51.058;17.040;2023-03-13T12:39:25;98880.84;;;21.46;39.25
63351;BME280;64988;51.058;17.040;2023-03-13T12:44:56;98860.88;;;22.19;37.67
63351;BME280;64988;51.058;17.040;2023-03-13T13:01:57;98845.81;;;22.87;37.33
63351;BME280;64988;51.058;17.040;2023-03-13T13:07:30;98851.63;;;22.79;36.84
63351;BME280;64988;51.058;17.040;2023-03-13T13:13:28;98841.19;;;22.70;36.99
63351;BME280;64988;51.058;17.040;2023-03-13T13:41:46;98822.28;;;23.38;34.90
63351;BME280;64988;51.058;17.040;2023-03-13T13:47:23;98822.69;;;23.65;34.70
63351;BME280;64988;51.058;17.040;2023-03-13T13:52:51;98816.31;;;23.76;34.76
63351;BME280;64988;51.058;17.040;2023-03-13T13:58:23;98814.78;;;23.45;35.22
63351;BME280;64988;51.058;17.040;2023-03-13T14:03:53;98818.22;;;23.87;34.80
63351;BME280;64988;51.058;17.040;2023-03-13T14:09:33;98804.28;;;24.17;34.45
63351;BME280;64988;51.058;17.040;2023-03-13T14:15:17;98794.00;;;24.00;34.18
63351;BME280;64988;51.058;17.040;2023-03-13T14:20:54;98812.31;;;24.07;34.29
63351;BME280;64988;51.058;17.040;2023-03-13T14:26:24;98805.69;;;24.08;34.20
63351;BME280;64988;51.058;17.040;2023-03-13T14:31:56;98808.41;;;23.79;34.79
63351;BME280;64988;51.058;17.040;2023-03-13T14:37:36;98799.44;;;23.72;34.75
63351;BME280;64988;51.058;17.040;2023-03-13T14:43:17;98815.69;;;23.97;34.28
63351;BME280;64988;51.058;17.040;2023-03-13T14:48:46;98814.16;;;23.89;34.26
63351;BME280;64988;51.058;17.040;2023-03-13T14:54:34;98807.84;;;23.54;34.78
63351;BME280;64988;51.058;17.040;2023-03-13T15:00:29;98792.97;;;23.32;35.29
63351;BME280;64988;51.058;17.040;2023-03-13T15:06:15;98809.59;;;23.25;36.18
63351;BME280;64988;51.058;17.040;2023-03-13T15:11:58;98810.31;;;23.09;35.99
63351;BME280;64988;51.058;17.040;2023-03-13T15:17:27;98796.97;;;22.83;36.94
63351;BME280;64988;51.058;17.040;2023-03-13T15:22:57;98807.88;;;22.89;36.33
63351;BME280;64988;51.058;17.040;2023-03-13T15:28:25;98801.97;;;22.74;36.27
63351;BME280;64988;51.058;17.040;2023-03-13T15:33:58;98778.84;;;22.34;37.05
63351;BME280;64988;51.058;17.040;2023-03-13T15:39:27;98781.84;;;21.78;38.34
63351;BME280;64988;51.058;17.040;2023-03-13T15:44:55;98778.81;;;21.86;38.28
63351;BME280;64988;51.058;17.040;2023-03-13T15:50:22;98771.50;;;21.98;38.59
63351;BME280;64988;51.058;17.040;2023-03-13T15:55:58;98768.28;;;21.83;38.91
63351;BME280;64988;51.058;17.040;2023-03-13T16:01:26;98746.16;;;21.23;40.05
63351;BME280;64988;51.058;17.040;2023-03-13T16:06:54;98730.16;;;21.57;39.73
63351;BME280;64988;51.058;17.040;2023-03-13T16:12:22;98720.06;;;21.14;40.12
63351;BME280;64988;51.058;17.040;2023-03-13T16:17:50;98719.00;;;21.15;40.41
63351;BME280;64988;51.058;17.040;2023-03-13T16:23:18;98717.66;;;20.75;41.53
63351;BME280;64988;51.058;17.040;2023-03-13T16:28:46;98709.16;;;20.58;42.01
63351;BME280;64988;51.058;17.040;2023-03-13T16:34:14;98699.91;;;19.97;42.96
63351;BME280;64988;51.058;17.040;2023-03-13T16:39:45;98706.44;;;19.51;43.78
63351;BME280;64988;51.058;17.040;2023-03-13T16:45:14;98702.19;;;19.55;44.26
63351;BME280;64988;51.058;17.040;2023-03-13T16:50:41;98690.75;;;19.07;45.45
63351;BME280;64988;51.058;17.040;2023-03-13T16:56:29;98677.09;;;18.94;46.05
63351;BME280;64988;51.058;17.040;2023-03-13T17:02:00;98671.00;;;18.92;45.71
63351;BME280;64988;51.058;17.040;2023-03-13T17:07:27;98684.25;;;18.88;45.91
63351;BME280;64988;51.058;17.040;2023-03-13T17:12:56;98672.31;;;18.63;46.26
63351;BME280;64988;51.058;17.040;2023-03-13T17:18:24;98658.63;;;18.30;46.60
63351;BME280;64988;51.058;17.040;2023-03-13T17:23:52;98658.59;;;18.96;45.20
63351;BME280;64988;51.058;17.040;2023-03-13T17:29:19;98635.91;;;18.89;45.34
63351;BME280;64988;51.058;17.040;2023-03-13T17:34:48;98650.19;;;18.91;44.94
63351;BME280;64988;51.058;17.040;2023-03-13T17:40:21;98665.53;;;18.99;44.83
63351;BME280;64988;51.058;17.040;2023-03-13T17:45:48;98664.06;;;18.96;45.07
63351;BME280;64988;51.058;17.040;2023-03-13T17:51:24;98637.41;;;18.72;45.66
63351;BME280;64988;51.058;17.040;2023-03-13T17:56:52;98627.06;;;18.80;45.34
63351;BME280;64988;51.058;17.040;2023-03-13T18:02:20;98638.56;;;19.09;44.90
63351;BME280;64988;51.058;17.040;2023-03-13T18:07:48;98650.41;;;18.90;45.19
63351;BME280;64988;51.058;17.040;2023-03-13T18:13:17;98650.19;;;18.91;44.71
63351;BME280;64988;51.058;17.040;2023-03-13T18:18:45;98643.69;;;18.85;44.81
63351;BME280;64988;51.058;17.040;2023-03-13T18:24:13;98643.97;;;18.51;45.68
63351;BME280;64988;51.058;17.040;2023-03-13T18:29:42;98655.09;;;18.56;45.72
63351;BME280;64988;51.058;17.040;2023-03-13T18:35:11;98671.47;;;18.56;45.66
63351;BME280;64988;51.058;17.040;2023-03-13T18:40:39;98650.63;;;18.49;45.99
63351;BME280;64988;51.058;17.040;2023-03-13T18:46:22;98646.03;;;18.62;45.65
63351;BME280;64988;51.058;17.040;2023-03-13T18:51:53;98644.97;;;18.76;45.05
63351;BME280;64988;51.058;17.040;2023-03-13T18:57:21;98623.75;;;18.65;45.74
63351;BME280;64988;51.058;17.040;2023-03-13T19:02:49;98633.38;;;18.87;44.50
63351;BME280;64988;51.058;17.040;2023-03-13T19:08:17;98626.22;;;18.86;44.57
63351;BME280;64988;51.058;17.040;2023-03-13T19:13:46;98629.59;;;18.88;44.49
63351;BME280;64988;51.058;17.040;2023-03-13T19:19:16;98633.78;;;18.84;44.62
63351;BME280;64988;51.058;17.040;2023-03-13T19:24:44;98620.97;;;18.78;44.48
63351;BME280;64988;51.058;17.040;2023-03-13T19:30:20;98609.06;;;18.53;45.15
63351;BME280;64988;51.058;17.040;2023-03-13T19:35:48;98606.94;;;18.35;45.71
63351;BME280;64988;51.058;17.040;2023-03-13T19:41:19;98608.19;;;18.20;45.78
63351;BME280;64988;51.058;17.040;2023-03-13T19:46:47;98592.22;;;17.91;46.26
63351;BME280;64988;51.058;17.040;2023-03-13T19:52:15;98593.19;;;17.50;46.88
63351;BME280;64988;51.058;17.040;2023-03-13T19:57:43;98588.03;;;17.81;44.81
63351;BME280;64988;51.058;17.040;2023-03-13T20:03:11;98583.56;;;17.54;45.57
63351;BME280;64988;51.058;17.040;2023-03-13T20:08:38;98568.31;;;17.79;43.66
63351;BME280;64988;51.058;17.040;2023-03-13T20:14:06;98563.44;;;17.68;43.36
63351;BME280;64988;51.058;17.040;2023-03-13T20:19:34;98553.53;;;17.41;42.76
63351;BME280;64988;51.058;17.040;2023-03-13T20:25:02;98575.84;;;17.91;41.67
63351;BME280;64988;51.058;17.040;2023-03-13T20:30:30;98580.28;;;17.92;41.12
63351;BME280;64988;51.058;17.040;2023-03-13T20:36:05;98556.53;;;17.59;41.21
63351;BME280;64988;51.058;17.040;2023-03-13T20:41:34;98548.06;;;17.35;40.85
63351;BME280;64988;51.058;17.040;2023-03-13T20:47:02;98538.22;;;17.47;40.23
63351;BME280;64988;51.058;17.040;2023-03-13T20:52:30;98529.59;;;17.43;40.21
63351;BME280;64988;51.058;17.040;2023-03-13T20:57:58;98511.78;;;17.47;39.58
63351;BME280;64988;51.058;17.040;2023-03-13T21:03:27;98503.31;;;17.16;39.85
63351;BME280;64988;51.058;17.040;2023-03-13T21:08:56;98504.16;;;17.10;40.01
63351;BME280;64988;51.058;17.040;2023-03-13T21:14:23;98494.66;;;16.86;39.88
63351;BME280;64988;51.058;17.040;2023-03-13T21:19:51;98453.59;;;17.01;39.39
63351;BME280;64988;51.058;17.040;2023-03-13T21:25:18;98475.25;;;17.15;39.17
63351;BME280;64988;51.058;17.040;2023-03-13T21:30:46;98475.84;;;17.04;39.59
63351;BME280;64988;51.058;17.040;2023-03-13T21:36:16;98465.34;;;17.08;39.12
63351;BME280;64988;51.058;17.040;2023-03-13T21:41:46;98461.19;;;17.25;38.29
63351;BME280;64988;51.058;17.040;2023-03-13T21:47:14;98435.56;;;17.00;38.66
63351;BME280;64988;51.058;17.040;2023-03-13T21:52:50;98442.53;;;17.28;38.27
63351;BME280;64988;51.058;17.040;2023-03-13T21:58:17;98448.19;;;17.20;38.46
63351;BME280;64988;51.058;17.040;2023-03-13T22:03:45;98443.56;;;17.08;38.82
63351;BME280;64988;51.058;17.040;2023-03-13T22:09:12;98434.09;;;17.04;38.71
63351;BME280;64988;51.058;17.040;2023-03-13T22:14:40;98432.88;;;17.26;38.22
63351;BME280;64988;51.058;17.040;2023-03-13T22:20:10;98423.44;;;17.22;38.46
63351;BME280;64988;51.058;17.040;2023-03-13T22:25:39;98421.97;;;17.19;38.32
63351;BME280;64988;51.058;17.040;2023-03-13T22:31:08;98404.34;;;16.96;39.08
63351;BME280;64988;51.058;17.040;2023-03-13T22:36:36;98388.41;;;17.25;38.33
63351;BME280;64988;51.058;17.040;2023-03-13T22:42:05;98380.44;;;17.24;37.86
63351;BME280;64988;51.058;17.040;2023-03-13T22:47:33;98380.03;;;17.66;37.94
63351;BME280;64988;51.058;17.040;2023-03-13T22:53:01;98362.38;;;17.43;38.23
63351;BME280;64988;51.058;17.040;2023-03-13T22:58:29;98357.38;;;17.13;38.92
63351;BME280;64988;51.058;17.040;2023-03-13T23:03:57;98366.38;;;17.07;38.98
63351;BME280;64988;51.058;17.040;2023-03-13T23:09:25;98416.09;;;17.22;38.54
63351;BME280;64988;51.058;17.040;2023-03-13T23:14:53;98417.56;;;17.25;38.26
63351;BME280;64988;51.058;17.040;2023-03-13T23:20:21;98432.28;;;17.70;36.91
63351;BME280;64988;51.058;17.040;2023-03-13T23:25:48;98432.06;;;17.78;37.13
63351;BME280;64988;51.058;17.040;2023-03-13T23:31:20;98390.28;;;17.64;37.08
63351;BME280;64988;51.058;17.040;2023-03-13T23:36:48;98386.28;;;17.93;36.31
63351;BME280;64988;51.058;17.040;2023-03-13T23:42:17;98403.50;;;17.74;36.71
63351;BME280;64988;51.058;17.040;2023-03-13T23:47:45;98386.50;;;17.00;38.25
63351;BME280;64988;51.058;17.040;2023-03-13T23:53:13;98371.84;;;17.40;37.36
63351;BME280;64988;51.058;17.040;2023-03-13T23:58:41;98364.94;;;17.31;37.83
